sensor_id;sensor_type;location;lat;lon;timestamp;P1;durP1;ratioP1;P2;durP2;ratioP2
12177;SDS011;6152;48.728;9.256;2022-09-09T00:06:55;2.67;;;0.88;;
12177;SDS011;6152;48.728;9.256;2022-09-09T00:09:46;4.18;;;1.00;;
12177;SDS011;6152;48.728;9.256;2022-09-09T00:20:16;2.00;;;0.55;;
12177;SDS011;6152;48.728;9.256;2022-09-09T00:22:51;2.35;;;1.35;;
12177;SDS011;6152;48.728;9.256;2022-09-09T00:25:29;4.25;;;1.65;;
12177;SDS011;6152;48.728;9.256;2022-09-09T00:28:20;3.28;;;1.00;;
12177;SDS011;6152;48.728;9.256;2022-09-09T00:30:51;2.22;;;1.08;;
12177;SDS011;6152;48.728;9.256;2022-09-09T00:33:24;0.70;;;0.57;;
12177;SDS011;6152;48.728;9.256;2022-09-09T00:35:56;1.23;;;0.93;;
12177;SDS011;6152;48.728;9.256;2022-09-09T00:43:36;4.63;;;1.00;;
12177;SDS011;6152;48.728;9.256;2022-09-09T00:49:21;3.72;;;0.93;;
12177;SDS011;6152;48.728;9.256;2022-09-09T00:54:58;2.28;;;0.80;;
12177;SDS011;6152;48.728;9.256;2022-09-09T00:57:46;2.10;;;0.80;;
12177;SDS011;6152;48.728;9.256;2022-09-09T01:05:30;1.80;;;0.60;;
12177;SDS011;6152;48.728;9.256;2022-09-09T01:10:56;1.55;;;0.77;;
12177;SDS011;6152;48.728;9.256;2022-09-09T01:13:28;0.70;;;0.68;;
12177;SDS011;6152;48.728;9.256;2022-09-09T01:16:00;1.95;;;0.73;;
12177;SDS011;6152;48.728;9.256;2022-09-09T01:18:29;1.92;;;0.55;;
12177;SDS011;6152;48.728;9.256;2022-09-09T01:28:53;3.80;;;0.70;;
12177;SDS011;6152;48.728;9.256;2022-09-09T01:31:26;1.15;;;0.65;;
12177;SDS011;6152;48.728;9.256;2022-09-09T01:33:59;3.08;;;0.77;;
12177;SDS011;6152;48.728;9.256;2022-09-09T01:38:58;4.10;;;0.68;;
12177;SDS011;6152;48.728;9.256;2022-09-09T01:41:24;2.13;;;0.52;;
12177;SDS011;6152;48.728;9.256;2022-09-09T01:43:52;4.95;;;0.70;;
12177;SDS011;6152;48.728;9.256;2022-09-09T01:46:21;3.08;;;0.73;;
12177;SDS011;6152;48.728;9.256;2022-09-09T01:48:49;2.65;;;0.70;;
12177;SDS011;6152;48.728;9.256;2022-09-09T01:51:18;2.45;;;0.88;;
12177;SDS011;6152;48.728;9.256;2022-09-09T01:53:44;5.07;;;0.60;;
12177;SDS011;6152;48.728;9.256;2022-09-09T02:04:31;2.55;;;0.70;;
12177;SDS011;6152;48.728;9.256;2022-09-09T02:07:05;1.40;;;0.60;;
12177;SDS011;6152;48.728;9.256;2022-09-09T02:09:39;1.98;;;0.60;;
12177;SDS011;6152;48.728;9.256;2022-09-09T02:12:11;2.30;;;0.60;;
12177;SDS011;6152;48.728;9.256;2022-09-09T02:14:40;1.27;;;0.50;;
12177;SDS011;6152;48.728;9.256;2022-09-09T02:17:13;0.57;;;0.30;;
12177;SDS011;6152;48.728;9.256;2022-09-09T02:19:54;1.88;;;0.60;;
12177;SDS011;6152;48.728;9.256;2022-09-09T02:22:29;0.40;;;0.40;;
12177;SDS011;6152;48.728;9.256;2022-09-09T02:24:59;2.63;;;0.30;;
12177;SDS011;6152;48.728;9.256;2022-09-09T02:27:26;2.22;;;0.50;;
12177;SDS011;6152;48.728;9.256;2022-09-09T02:29:54;1.45;;;0.50;;
12177;SDS011;6152;48.728;9.256;2022-09-09T02:32:23;0.98;;;0.60;;
12177;SDS011;6152;48.728;9.256;2022-09-09T02:34:51;1.40;;;0.43;;
12177;SDS011;6152;48.728;9.256;2022-09-09T02:37:23;1.92;;;0.50;;
12177;SDS011;6152;48.728;9.256;2022-09-09T02:39:53;1.33;;;0.60;;
12177;SDS011;6152;48.728;9.256;2022-09-09T02:42:20;1.65;;;0.45;;
12177;SDS011;6152;48.728;9.256;2022-09-09T02:44:47;1.05;;;0.60;;
12177;SDS011;6152;48.728;9.256;2022-09-09T02:50:03;1.38;;;0.50;;
12177;SDS011;6152;48.728;9.256;2022-09-09T02:55:44;1.63;;;0.55;;
12177;SDS011;6152;48.728;9.256;2022-09-09T02:58:20;1.27;;;0.50;;
12177;SDS011;6152;48.728;9.256;2022-09-09T03:00:48;2.00;;;0.70;;
12177;SDS011;6152;48.728;9.256;2022-09-09T03:03:15;2.05;;;0.50;;
12177;SDS011;6152;48.728;9.256;2022-09-09T03:05:43;3.15;;;0.52;;
12177;SDS011;6152;48.728;9.256;2022-09-09T03:08:09;1.02;;;0.60;;
12177;SDS011;6152;48.728;9.256;2022-09-09T03:10:36;3.45;;;0.57;;
12177;SDS011;6152;48.728;9.256;2022-09-09T03:13:02;3.40;;;0.70;;
12177;SDS011;6152;48.728;9.256;2022-09-09T03:15:30;1.42;;;0.75;;
12177;SDS011;6152;48.728;9.256;2022-09-09T03:17:58;1.35;;;0.85;;
12177;SDS011;6152;48.728;9.256;2022-09-09T03:20:25;4.45;;;1.10;;
12177;SDS011;6152;48.728;9.256;2022-09-09T03:22:53;2.67;;;0.90;;
12177;SDS011;6152;48.728;9.256;2022-09-09T03:25:20;1.95;;;0.93;;
12177;SDS011;6152;48.728;9.256;2022-09-09T03:27:48;2.55;;;1.00;;
12177;SDS011;6152;48.728;9.256;2022-09-09T03:30:15;1.35;;;0.82;;
12177;SDS011;6152;48.728;9.256;2022-09-09T03:32:41;2.10;;;1.00;;
12177;SDS011;6152;48.728;9.256;2022-09-09T03:35:08;1.38;;;1.05;;
12177;SDS011;6152;48.728;9.256;2022-09-09T03:37:34;1.48;;;0.75;;
12177;SDS011;6152;48.728;9.256;2022-09-09T03:40:00;4.60;;;1.05;;
12177;SDS011;6152;48.728;9.256;2022-09-09T03:42:26;2.70;;;1.05;;
12177;SDS011;6152;48.728;9.256;2022-09-09T03:44:52;3.25;;;1.10;;
12177;SDS011;6152;48.728;9.256;2022-09-09T03:47:19;1.70;;;0.77;;
12177;SDS011;6152;48.728;9.256;2022-09-09T03:49:47;2.97;;;0.90;;
12177;SDS011;6152;48.728;9.256;2022-09-09T03:52:13;3.03;;;0.90;;
12177;SDS011;6152;48.728;9.256;2022-09-09T03:54:40;2.17;;;0.85;;
12177;SDS011;6152;48.728;9.256;2022-09-09T03:57:07;1.73;;;0.73;;
12177;SDS011;6152;48.728;9.256;2022-09-09T03:59:34;2.03;;;0.93;;
12177;SDS011;6152;48.728;9.256;2022-09-09T04:02:00;1.35;;;1.00;;
12177;SDS011;6152;48.728;9.256;2022-09-09T04:04:27;2.22;;;1.08;;
12177;SDS011;6152;48.728;9.256;2022-09-09T04:06:53;2.13;;;0.93;;
12177;SDS011;6152;48.728;9.256;2022-09-09T04:09:19;3.20;;;0.85;;
12177;SDS011;6152;48.728;9.256;2022-09-09T04:11:46;1.02;;;0.70;;
12177;SDS011;6152;48.728;9.256;2022-09-09T04:14:12;1.75;;;1.00;;
12177;SDS011;6152;48.728;9.256;2022-09-09T04:16:38;2.35;;;0.85;;
12177;SDS011;6152;48.728;9.256;2022-09-09T04:19:09;2.70;;;0.85;;
12177;SDS011;6152;48.728;9.256;2022-09-09T04:21:41;2.05;;;0.88;;
12177;SDS011;6152;48.728;9.256;2022-09-09T04:24:07;1.42;;;1.20;;
12177;SDS011;6152;48.728;9.256;2022-09-09T04:26:34;3.33;;;1.20;;
12177;SDS011;6152;48.728;9.256;2022-09-09T04:29:02;1.40;;;0.85;;
12177;SDS011;6152;48.728;9.256;2022-09-09T04:31:28;1.98;;;0.82;;
12177;SDS011;6152;48.728;9.256;2022-09-09T04:33:55;1.75;;;0.80;;
12177;SDS011;6152;48.728;9.256;2022-09-09T04:36:21;1.25;;;0.77;;
12177;SDS011;6152;48.728;9.256;2022-09-09T04:38:47;2.17;;;0.77;;
12177;SDS011;6152;48.728;9.256;2022-09-09T04:41:14;3.03;;;0.70;;
12177;SDS011;6152;48.728;9.256;2022-09-09T04:43:41;4.13;;;0.90;;
12177;SDS011;6152;48.728;9.256;2022-09-09T04:46:08;3.50;;;1.02;;
12177;SDS011;6152;48.728;9.256;2022-09-09T04:48:34;1.33;;;1.00;;
12177;SDS011;6152;48.728;9.256;2022-09-09T04:51:01;2.03;;;0.98;;
12177;SDS011;6152;48.728;9.256;2022-09-09T04:53:29;3.97;;;0.80;;
12177;SDS011;6152;48.728;9.256;2022-09-09T04:56:05;1.73;;;0.90;;
12177;SDS011;6152;48.728;9.256;2022-09-09T04:58:34;0.75;;;0.60;;
12177;SDS011;6152;48.728;9.256;2022-09-09T05:01:22;1.15;;;0.80;;
12177;SDS011;6152;48.728;9.256;2022-09-09T05:03:49;2.53;;;0.77;;
12177;SDS011;6152;48.728;9.256;2022-09-09T05:06:18;4.57;;;1.00;;
12177;SDS011;6152;48.728;9.256;2022-09-09T05:08:45;1.20;;;0.90;;
12177;SDS011;6152;48.728;9.256;2022-09-09T05:11:21;6.68;;;1.30;;
12177;SDS011;6152;48.728;9.256;2022-09-09T05:13:52;1.42;;;1.00;;
12177;SDS011;6152;48.728;9.256;2022-09-09T05:16:19;1.48;;;0.80;;
12177;SDS011;6152;48.728;9.256;2022-09-09T05:18:46;0.95;;;0.75;;
12177;SDS011;6152;48.728;9.256;2022-09-09T05:21:13;7.13;;;1.40;;
12177;SDS011;6152;48.728;9.256;2022-09-09T05:23:41;2.88;;;0.90;;
12177;SDS011;6152;48.728;9.256;2022-09-09T05:26:08;5.60;;;0.95;;
12177;SDS011;6152;48.728;9.256;2022-09-09T05:28:38;2.50;;;0.98;;
12177;SDS011;6152;48.728;9.256;2022-09-09T05:31:06;2.60;;;1.00;;
12177;SDS011;6152;48.728;9.256;2022-09-09T05:33:33;2.75;;;0.85;;
12177;SDS011;6152;48.728;9.256;2022-09-09T05:36:01;3.08;;;0.93;;
12177;SDS011;6152;48.728;9.256;2022-09-09T05:38:30;2.50;;;0.80;;
12177;SDS011;6152;48.728;9.256;2022-09-09T05:40:58;3.15;;;0.90;;
12177;SDS011;6152;48.728;9.256;2022-09-09T05:43:25;4.45;;;0.70;;
12177;SDS011;6152;48.728;9.256;2022-09-09T05:46:02;1.42;;;0.93;;
12177;SDS011;6152;48.728;9.256;2022-09-09T05:48:33;4.40;;;0.95;;
12177;SDS011;6152;48.728;9.256;2022-09-09T05:51:02;7.80;;;1.27;;
12177;SDS011;6152;48.728;9.256;2022-09-09T05:53:29;0.93;;;0.70;;
12177;SDS011;6152;48.728;9.256;2022-09-09T05:56:12;1.95;;;0.60;;
12177;SDS011;6152;48.728;9.256;2022-09-09T05:58:40;4.93;;;1.00;;
12177;SDS011;6152;48.728;9.256;2022-09-09T06:03:42;3.03;;;0.85;;
12177;SDS011;6152;48.728;9.256;2022-09-09T06:06:11;4.85;;;0.60;;
12177;SDS011;6152;48.728;9.256;2022-09-09T06:08:40;2.03;;;0.70;;
12177;SDS011;6152;48.728;9.256;2022-09-09T06:13:36;1.52;;;0.50;;
12177;SDS011;6152;48.728;9.256;2022-09-09T06:16:04;3.85;;;0.50;;
12177;SDS011;6152;48.728;9.256;2022-09-09T06:18:37;3.50;;;0.95;;
12177;SDS011;6152;48.728;9.256;2022-09-09T06:21:05;1.83;;;0.60;;
12177;SDS011;6152;48.728;9.256;2022-09-09T06:23:34;3.75;;;0.70;;
12177;SDS011;6152;48.728;9.256;2022-09-09T06:26:04;1.33;;;0.60;;
12177;SDS011;6152;48.728;9.256;2022-09-09T06:28:33;1.23;;;0.50;;
12177;SDS011;6152;48.728;9.256;2022-09-09T06:31:03;2.90;;;0.70;;
12177;SDS011;6152;48.728;9.256;2022-09-09T06:33:35;1.48;;;0.50;;
12177;SDS011;6152;48.728;9.256;2022-09-09T06:36:04;1.80;;;0.70;;
12177;SDS011;6152;48.728;9.256;2022-09-09T06:38:31;6.30;;;1.10;;
12177;SDS011;6152;48.728;9.256;2022-09-09T06:40:57;0.70;;;0.63;;
12177;SDS011;6152;48.728;9.256;2022-09-09T06:43:25;3.08;;;0.52;;
12177;SDS011;6152;48.728;9.256;2022-09-09T06:45:58;2.42;;;0.50;;
12177;SDS011;6152;48.728;9.256;2022-09-09T06:48:26;3.15;;;0.75;;
12177;SDS011;6152;48.728;9.256;2022-09-09T06:53:33;1.35;;;0.60;;
12177;SDS011;6152;48.728;9.256;2022-09-09T06:56:01;3.42;;;0.80;;
12177;SDS011;6152;48.728;9.256;2022-09-09T06:58:42;1.67;;;0.57;;
12177;SDS011;6152;48.728;9.256;2022-09-09T07:01:09;1.08;;;0.60;;
12177;SDS011;6152;48.728;9.256;2022-09-09T07:03:37;3.15;;;0.80;;
12177;SDS011;6152;48.728;9.256;2022-09-09T07:06:04;2.72;;;0.70;;
12177;SDS011;6152;48.728;9.256;2022-09-09T07:08:32;3.78;;;0.68;;
12177;SDS011;6152;48.728;9.256;2022-09-09T07:11:04;1.67;;;0.68;;
12177;SDS011;6152;48.728;9.256;2022-09-09T07:13:33;1.73;;;1.48;;
12177;SDS011;6152;48.728;9.256;2022-09-09T07:16:06;3.67;;;0.57;;
12177;SDS011;6152;48.728;9.256;2022-09-09T07:18:34;3.30;;;0.68;;
12177;SDS011;6152;48.728;9.256;2022-09-09T07:21:01;1.08;;;0.65;;
12177;SDS011;6152;48.728;9.256;2022-09-09T07:23:29;1.02;;;0.50;;
12177;SDS011;6152;48.728;9.256;2022-09-09T07:25:56;2.75;;;0.50;;
12177;SDS011;6152;48.728;9.256;2022-09-09T07:28:23;2.95;;;0.65;;
12177;SDS011;6152;48.728;9.256;2022-09-09T07:30:58;2.47;;;0.80;;
12177;SDS011;6152;48.728;9.256;2022-09-09T07:33:28;2.05;;;0.60;;
12177;SDS011;6152;48.728;9.256;2022-09-09T07:36:02;3.17;;;0.60;;
12177;SDS011;6152;48.728;9.256;2022-09-09T07:38:32;2.92;;;0.60;;
12177;SDS011;6152;48.728;9.256;2022-09-09T07:41:10;3.55;;;0.70;;
12177;SDS011;6152;48.728;9.256;2022-09-09T07:43:40;2.83;;;0.73;;
12177;SDS011;6152;48.728;9.256;2022-09-09T07:46:07;3.78;;;0.75;;
12177;SDS011;6152;48.728;9.256;2022-09-09T07:48:34;3.67;;;0.50;;
12177;SDS011;6152;48.728;9.256;2022-09-09T07:51:08;2.72;;;0.60;;
12177;SDS011;6152;48.728;9.256;2022-09-09T07:53:37;2.08;;;0.60;;
12177;SDS011;6152;48.728;9.256;2022-09-09T07:56:05;3.63;;;0.88;;
12177;SDS011;6152;48.728;9.256;2022-09-09T07:58:34;1.38;;;0.50;;
12177;SDS011;6152;48.728;9.256;2022-09-09T08:01:06;2.35;;;0.75;;
12177;SDS011;6152;48.728;9.256;2022-09-09T08:03:33;3.28;;;0.60;;
12177;SDS011;6152;48.728;9.256;2022-09-09T08:06:00;1.23;;;0.52;;
12177;SDS011;6152;48.728;9.256;2022-09-09T08:08:28;0.98;;;0.63;;
12177;SDS011;6152;48.728;9.256;2022-09-09T08:11:01;1.13;;;0.60;;
12177;SDS011;6152;48.728;9.256;2022-09-09T08:13:32;2.78;;;0.60;;
12177;SDS011;6152;48.728;9.256;2022-09-09T08:16:06;5.07;;;0.60;;
12177;SDS011;6152;48.728;9.256;2022-09-09T08:18:37;0.70;;;0.57;;
12177;SDS011;6152;48.728;9.256;2022-09-09T08:21:13;1.60;;;0.50;;
12177;SDS011;6152;48.728;9.256;2022-09-09T08:23:43;1.95;;;0.70;;
12177;SDS011;6152;48.728;9.256;2022-09-09T08:26:14;0.73;;;0.52;;
12177;SDS011;6152;48.728;9.256;2022-09-09T08:28:42;1.40;;;0.50;;
12177;SDS011;6152;48.728;9.256;2022-09-09T08:34:02;1.58;;;0.55;;
12177;SDS011;6152;48.728;9.256;2022-09-09T08:36:32;4.13;;;0.43;;
12177;SDS011;6152;48.728;9.256;2022-09-09T08:39:01;0.95;;;0.70;;
12177;SDS011;6152;48.728;9.256;2022-09-09T09:00:49;3.40;;;0.40;;
12177;SDS011;6152;48.728;9.256;2022-09-09T09:03:30;1.75;;;0.50;;
12177;SDS011;6152;48.728;9.256;2022-09-09T09:11:35;2.30;;;0.40;;
12177;SDS011;6152;48.728;9.256;2022-09-09T09:14:15;1.83;;;0.40;;
12177;SDS011;6152;48.728;9.256;2022-09-09T09:19:42;1.08;;;0.60;;
12177;SDS011;6152;48.728;9.256;2022-09-09T09:30:35;2.88;;;0.40;;
12177;SDS011;6152;48.728;9.256;2022-09-09T09:35:49;1.08;;;0.43;;
12177;SDS011;6152;48.728;9.256;2022-09-09T09:38:17;1.30;;;0.20;;
12177;SDS011;6152;48.728;9.256;2022-09-09T09:40:54;1.02;;;0.20;;
12177;SDS011;6152;48.728;9.256;2022-09-09T09:43:29;0.47;;;0.30;;
12177;SDS011;6152;48.728;9.256;2022-09-09T09:45:57;2.03;;;0.50;;
12177;SDS011;6152;48.728;9.256;2022-09-09T09:48:25;1.90;;;0.50;;
12177;SDS011;6152;48.728;9.256;2022-09-09T09:51:04;1.63;;;0.20;;
12177;SDS011;6152;48.728;9.256;2022-09-09T09:53:38;0.88;;;0.10;;
12177;SDS011;6152;48.728;9.256;2022-09-09T09:56:08;1.88;;;0.30;;
12177;SDS011;6152;48.728;9.256;2022-09-09T10:01:23;1.13;;;0.20;;
12177;SDS011;6152;48.728;9.256;2022-09-09T10:03:59;1.38;;;0.30;;
12177;SDS011;6152;48.728;9.256;2022-09-09T10:08:58;0.57;;;0.30;;
12177;SDS011;6152;48.728;9.256;2022-09-09T10:11:41;2.38;;;0.40;;
12177;SDS011;6152;48.728;9.256;2022-09-09T10:14:25;0.43;;;0.20;;
12177;SDS011;6152;48.728;9.256;2022-09-09T10:19:42;0.60;;;0.30;;
12177;SDS011;6152;48.728;9.256;2022-09-09T10:22:28;0.55;;;0.40;;
12177;SDS011;6152;48.728;9.256;2022-09-09T10:30:20;1.20;;;0.45;;
12177;SDS011;6152;48.728;9.256;2022-09-09T10:32:59;1.60;;;0.47;;
12177;SDS011;6152;48.728;9.256;2022-09-09T10:35:40;0.30;;;0.25;;
12177;SDS011;6152;48.728;9.256;2022-09-09T10:38:39;1.15;;;0.30;;
12177;SDS011;6152;48.728;9.256;2022-09-09T10:44:28;1.70;;;0.30;;
12177;SDS011;6152;48.728;9.256;2022-09-09T10:55:27;1.25;;;0.40;;
12177;SDS011;6152;48.728;9.256;2022-09-09T10:58:09;1.02;;;0.32;;
12177;SDS011;6152;48.728;9.256;2022-09-09T11:00:44;0.40;;;0.30;;
12177;SDS011;6152;48.728;9.256;2022-09-09T11:03:20;0.95;;;0.30;;
12177;SDS011;6152;48.728;9.256;2022-09-09T11:05:53;0.95;;;0.30;;
12177;SDS011;6152;48.728;9.256;2022-09-09T11:08:30;2.22;;;0.32;;
12177;SDS011;6152;48.728;9.256;2022-09-09T11:21:51;1.50;;;0.40;;
12177;SDS011;6152;48.728;9.256;2022-09-09T11:26:54;2.22;;;0.30;;
12177;SDS011;6152;48.728;9.256;2022-09-09T11:40:36;0.45;;;0.35;;
12177;SDS011;6152;48.728;9.256;2022-09-09T11:43:10;0.93;;;0.30;;
12177;SDS011;6152;48.728;9.256;2022-09-09T11:45:57;0.38;;;0.30;;
12177;SDS011;6152;48.728;9.256;2022-09-09T11:51:11;0.70;;;0.30;;
12177;SDS011;6152;48.728;9.256;2022-09-09T11:53:51;1.08;;;0.40;;
12177;SDS011;6152;48.728;9.256;2022-09-09T11:56:27;0.30;;;0.20;;
12177;SDS011;6152;48.728;9.256;2022-09-09T11:59:19;1.10;;;0.10;;
12177;SDS011;6152;48.728;9.256;2022-09-09T12:04:49;0.20;;;0.17;;
12177;SDS011;6152;48.728;9.256;2022-09-09T12:12:31;0.35;;;0.10;;
12177;SDS011;6152;48.728;9.256;2022-09-09T12:15:00;1.13;;;0.10;;
12177;SDS011;6152;48.728;9.256;2022-09-09T12:17:28;0.10;;;0.10;;
12177;SDS011;6152;48.728;9.256;2022-09-09T12:27:45;0.17;;;0.17;;
12177;SDS011;6152;48.728;9.256;2022-09-09T12:30:22;0.47;;;0.10;;
12177;SDS011;6152;48.728;9.256;2022-09-09T12:33:00;0.55;;;0.10;;
12177;SDS011;6152;48.728;9.256;2022-09-09T12:35:33;0.10;;;0.10;;
12177;SDS011;6152;48.728;9.256;2022-09-09T12:38:02;0.10;;;0.10;;
12177;SDS011;6152;48.728;9.256;2022-09-09T12:40:35;0.52;;;0.10;;
12177;SDS011;6152;48.728;9.256;2022-09-09T12:43:02;1.20;;;0.20;;
12177;SDS011;6152;48.728;9.256;2022-09-09T12:45:44;1.48;;;0.15;;
12177;SDS011;6152;48.728;9.256;2022-09-09T12:48:11;0.70;;;0.20;;
12177;SDS011;6152;48.728;9.256;2022-09-09T12:50:44;0.80;;;0.13;;
12177;SDS011;6152;48.728;9.256;2022-09-09T12:53:17;0.22;;;0.17;;
12177;SDS011;6152;48.728;9.256;2022-09-09T12:55:52;2.25;;;0.20;;
12177;SDS011;6152;48.728;9.256;2022-09-09T12:58:27;1.00;;;0.22;;
12177;SDS011;6152;48.728;9.256;2022-09-09T13:00:58;1.50;;;0.30;;
12177;SDS011;6152;48.728;9.256;2022-09-09T13:03:25;1.05;;;0.20;;
12177;SDS011;6152;48.728;9.256;2022-09-09T13:05:52;1.35;;;0.20;;
12177;SDS011;6152;48.728;9.256;2022-09-09T13:08:23;0.80;;;0.17;;
12177;SDS011;6152;48.728;9.256;2022-09-09T13:13:40;0.75;;;0.10;;
12177;SDS011;6152;48.728;9.256;2022-09-09T13:19:07;1.65;;;0.22;;
12177;SDS011;6152;48.728;9.256;2022-09-09T13:21:43;1.17;;;0.20;;
12177;SDS011;6152;48.728;9.256;2022-09-09T13:29:29;0.98;;;0.30;;
12177;SDS011;6152;48.728;9.256;2022-09-09T13:32:06;0.82;;;0.20;;
12177;SDS011;6152;48.728;9.256;2022-09-09T13:34:50;2.13;;;0.20;;
12177;SDS011;6152;48.728;9.256;2022-09-09T13:37:37;0.75;;;0.10;;
12177;SDS011;6152;48.728;9.256;2022-09-09T13:40:06;1.10;;;0.10;;
12177;SDS011;6152;48.728;9.256;2022-09-09T13:42:44;0.40;;;0.40;;
12177;SDS011;6152;48.728;9.256;2022-09-09T13:45:20;1.85;;;0.30;;
12177;SDS011;6152;48.728;9.256;2022-09-09T13:47:51;0.63;;;0.20;;
12177;SDS011;6152;48.728;9.256;2022-09-09T13:52:54;0.57;;;0.20;;
12177;SDS011;6152;48.728;9.256;2022-09-09T13:55:23;0.20;;;0.20;;
12177;SDS011;6152;48.728;9.256;2022-09-09T13:57:52;0.55;;;0.20;;
12177;SDS011;6152;48.728;9.256;2022-09-09T14:00:22;0.32;;;0.20;;
12177;SDS011;6152;48.728;9.256;2022-09-09T14:02:49;0.30;;;0.15;;
12177;SDS011;6152;48.728;9.256;2022-09-09T14:05:16;1.50;;;0.20;;
12177;SDS011;6152;48.728;9.256;2022-09-09T14:07:43;0.43;;;0.20;;
12177;SDS011;6152;48.728;9.256;2022-09-09T14:10:10;0.10;;;0.10;;
12177;SDS011;6152;48.728;9.256;2022-09-09T14:12:37;0.90;;;0.20;;
12177;SDS011;6152;48.728;9.256;2022-09-09T14:15:04;1.17;;;0.20;;
12177;SDS011;6152;48.728;9.256;2022-09-09T14:17:31;1.45;;;0.20;;
12177;SDS011;6152;48.728;9.256;2022-09-09T14:19:58;1.75;;;0.25;;
12177;SDS011;6152;48.728;9.256;2022-09-09T14:22:24;0.70;;;0.20;;
12177;SDS011;6152;48.728;9.256;2022-09-09T14:24:51;0.28;;;0.20;;
12177;SDS011;6152;48.728;9.256;2022-09-09T14:27:17;0.43;;;0.20;;
12177;SDS011;6152;48.728;9.256;2022-09-09T14:29:44;1.42;;;0.30;;
12177;SDS011;6152;48.728;9.256;2022-09-09T14:32:10;0.10;;;0.10;;
12177;SDS011;6152;48.728;9.256;2022-09-09T14:34:37;0.20;;;0.10;;
12177;SDS011;6152;48.728;9.256;2022-09-09T14:37:03;0.43;;;0.10;;
12177;SDS011;6152;48.728;9.256;2022-09-09T14:39:29;0.40;;;0.20;;
12177;SDS011;6152;48.728;9.256;2022-09-09T14:41:55;0.47;;;0.20;;
12177;SDS011;6152;48.728;9.256;2022-09-09T14:44:21;0.47;;;0.17;;
12177;SDS011;6152;48.728;9.256;2022-09-09T14:46:47;0.50;;;0.20;;
12177;SDS011;6152;48.728;9.256;2022-09-09T14:49:17;0.65;;;0.10;;
12177;SDS011;6152;48.728;9.256;2022-09-09T14:51:43;0.95;;;0.30;;
12177;SDS011;6152;48.728;9.256;2022-09-09T14:54:09;0.73;;;0.20;;
12177;SDS011;6152;48.728;9.256;2022-09-09T14:56:35;1.77;;;0.22;;
12177;SDS011;6152;48.728;9.256;2022-09-09T14:59:02;1.05;;;0.10;;
12177;SDS011;6152;48.728;9.256;2022-09-09T15:01:30;0.80;;;0.20;;
12177;SDS011;6152;48.728;9.256;2022-09-09T15:04:01;1.17;;;0.20;;
12177;SDS011;6152;48.728;9.256;2022-09-09T15:06:30;0.88;;;0.10;;
12177;SDS011;6152;48.728;9.256;2022-09-09T15:09:03;0.65;;;0.13;;
12177;SDS011;6152;48.728;9.256;2022-09-09T15:11:30;1.60;;;0.17;;
12177;SDS011;6152;48.728;9.256;2022-09-09T15:14:02;1.17;;;0.10;;
12177;SDS011;6152;48.728;9.256;2022-09-09T15:16:29;1.55;;;0.10;;
12177;SDS011;6152;48.728;9.256;2022-09-09T15:18:57;0.35;;;0.22;;
12177;SDS011;6152;48.728;9.256;2022-09-09T15:21:25;2.00;;;0.22;;
12177;SDS011;6152;48.728;9.256;2022-09-09T15:23:53;0.80;;;0.20;;
12177;SDS011;6152;48.728;9.256;2022-09-09T15:26:21;0.10;;;0.10;;
12177;SDS011;6152;48.728;9.256;2022-09-09T15:28:48;2.25;;;0.20;;
12177;SDS011;6152;48.728;9.256;2022-09-09T15:31:19;1.65;;;0.20;;
12177;SDS011;6152;48.728;9.256;2022-09-09T15:36:21;4.07;;;0.30;;
12177;SDS011;6152;48.728;9.256;2022-09-09T15:38:49;0.82;;;0.20;;
12177;SDS011;6152;48.728;9.256;2022-09-09T15:41:17;0.40;;;0.40;;
12177;SDS011;6152;48.728;9.256;2022-09-09T15:43:45;1.17;;;0.20;;
12177;SDS011;6152;48.728;9.256;2022-09-09T15:48:45;0.35;;;0.20;;
12177;SDS011;6152;48.728;9.256;2022-09-09T15:51:13;0.50;;;0.20;;
12177;SDS011;6152;48.728;9.256;2022-09-09T15:53:39;0.50;;;0.20;;
12177;SDS011;6152;48.728;9.256;2022-09-09T15:56:06;0.82;;;0.20;;
12177;SDS011;6152;48.728;9.256;2022-09-09T15:58:33;1.92;;;0.20;;
12177;SDS011;6152;48.728;9.256;2022-09-09T16:01:10;1.77;;;0.73;;
12177;SDS011;6152;48.728;9.256;2022-09-09T16:03:38;1.98;;;0.10;;
12177;SDS011;6152;48.728;9.256;2022-09-09T16:06:11;0.85;;;0.40;;
12177;SDS011;6152;48.728;9.256;2022-09-09T16:08:42;0.65;;;0.15;;
12177;SDS011;6152;48.728;9.256;2022-09-09T16:11:13;0.47;;;0.20;;
12177;SDS011;6152;48.728;9.256;2022-09-09T16:13:42;0.43;;;0.25;;
12177;SDS011;6152;48.728;9.256;2022-09-09T16:16:10;0.95;;;0.20;;
12177;SDS011;6152;48.728;9.256;2022-09-09T16:18:39;1.52;;;0.20;;
12177;SDS011;6152;48.728;9.256;2022-09-09T16:21:07;1.20;;;0.20;;
12177;SDS011;6152;48.728;9.256;2022-09-09T16:23:37;2.30;;;0.20;;
12177;SDS011;6152;48.728;9.256;2022-09-09T16:26:04;0.20;;;0.20;;
12177;SDS011;6152;48.728;9.256;2022-09-09T16:28:30;0.73;;;0.32;;
12177;SDS011;6152;48.728;9.256;2022-09-09T16:30:56;0.75;;;0.20;;
12177;SDS011;6152;48.728;9.256;2022-09-09T16:33:23;0.52;;;0.20;;
12177;SDS011;6152;48.728;9.256;2022-09-09T16:35:51;0.57;;;0.20;;
12177;SDS011;6152;48.728;9.256;2022-09-09T16:38:17;0.95;;;0.20;;
12177;SDS011;6152;48.728;9.256;2022-09-09T16:40:43;0.55;;;0.20;;
12177;SDS011;6152;48.728;9.256;2022-09-09T16:43:09;0.30;;;0.10;;
12177;SDS011;6152;48.728;9.256;2022-09-09T16:45:43;0.93;;;0.52;;
12177;SDS011;6152;48.728;9.256;2022-09-09T16:48:10;0.40;;;0.22;;
12177;SDS011;6152;48.728;9.256;2022-09-09T16:50:36;0.68;;;0.28;;
12177;SDS011;6152;48.728;9.256;2022-09-09T16:53:04;2.15;;;0.20;;
12177;SDS011;6152;48.728;9.256;2022-09-09T16:55:31;1.77;;;0.20;;
12177;SDS011;6152;48.728;9.256;2022-09-09T16:57:57;0.85;;;0.30;;
12177;SDS011;6152;48.728;9.256;2022-09-09T17:00:23;2.47;;;0.30;;
12177;SDS011;6152;48.728;9.256;2022-09-09T17:02:51;1.90;;;0.20;;
12177;SDS011;6152;48.728;9.256;2022-09-09T17:05:18;0.63;;;0.10;;
12177;SDS011;6152;48.728;9.256;2022-09-09T17:07:44;0.65;;;0.40;;
12177;SDS011;6152;48.728;9.256;2022-09-09T17:10:10;0.10;;;0.10;;
12177;SDS011;6152;48.728;9.256;2022-09-09T17:12:36;0.38;;;0.20;;
12177;SDS011;6152;48.728;9.256;2022-09-09T17:15:02;0.10;;;0.10;;
12177;SDS011;6152;48.728;9.256;2022-09-09T17:17:28;0.10;;;0.10;;
12177;SDS011;6152;48.728;9.256;2022-09-09T17:19:55;0.10;;;0.10;;
12177;SDS011;6152;48.728;9.256;2022-09-09T17:22:21;0.30;;;0.10;;
12177;SDS011;6152;48.728;9.256;2022-09-09T17:24:48;0.22;;;0.10;;
12177;SDS011;6152;48.728;9.256;2022-09-09T17:27:14;0.63;;;0.10;;
12177;SDS011;6152;48.728;9.256;2022-09-09T17:29:40;0.10;;;0.10;;
12177;SDS011;6152;48.728;9.256;2022-09-09T17:32:06;0.20;;;0.20;;
12177;SDS011;6152;48.728;9.256;2022-09-09T17:34:33;0.63;;;0.10;;
12177;SDS011;6152;48.728;9.256;2022-09-09T17:36:59;0.57;;;0.15;;
12177;SDS011;6152;48.728;9.256;2022-09-09T17:39:25;0.40;;;0.20;;
12177;SDS011;6152;48.728;9.256;2022-09-09T17:41:52;0.20;;;0.10;;
12177;SDS011;6152;48.728;9.256;2022-09-09T17:44:19;0.43;;;0.17;;
12177;SDS011;6152;48.728;9.256;2022-09-09T17:46:45;0.38;;;0.10;;
12177;SDS011;6152;48.728;9.256;2022-09-09T17:49:13;0.55;;;0.30;;
12177;SDS011;6152;48.728;9.256;2022-09-09T17:51:41;0.10;;;0.10;;
12177;SDS011;6152;48.728;9.256;2022-09-09T17:54:14;1.65;;;0.20;;
12177;SDS011;6152;48.728;9.256;2022-09-09T17:56:44;1.92;;;0.20;;
12177;SDS011;6152;48.728;9.256;2022-09-09T17:59:12;0.68;;;0.10;;
12177;SDS011;6152;48.728;9.256;2022-09-09T18:01:41;0.30;;;0.13;;
12177;SDS011;6152;48.728;9.256;2022-09-09T18:04:09;0.32;;;0.13;;
12177;SDS011;6152;48.728;9.256;2022-09-09T18:06:41;0.98;;;0.25;;
12177;SDS011;6152;48.728;9.256;2022-09-09T18:09:12;1.27;;;0.30;;
12177;SDS011;6152;48.728;9.256;2022-09-09T18:11:42;0.68;;;0.40;;
12177;SDS011;6152;48.728;9.256;2022-09-09T18:14:16;0.30;;;0.20;;
12177;SDS011;6152;48.728;9.256;2022-09-09T18:16:44;1.15;;;0.22;;
12177;SDS011;6152;48.728;9.256;2022-09-09T18:19:14;1.10;;;0.10;;
12177;SDS011;6152;48.728;9.256;2022-09-09T18:21:45;1.50;;;0.10;;
12177;SDS011;6152;48.728;9.256;2022-09-09T18:24:12;0.22;;;0.17;;
12177;SDS011;6152;48.728;9.256;2022-09-09T18:26:40;0.45;;;0.10;;
12177;SDS011;6152;48.728;9.256;2022-09-09T18:29:08;0.30;;;0.30;;
12177;SDS011;6152;48.728;9.256;2022-09-09T18:31:37;1.58;;;0.30;;